createdAt,value
2023-04-22T00:00:18.046Z,8.30
2023-04-22T00:02:45.674Z,11.57
2023-04-22T00:05:15.656Z,20.70
2023-04-22T00:07:43.767Z,10.00
2023-04-22T00:10:10.268Z,11.57
2023-04-22T00:12:36.777Z,13.23
2023-04-22T00:15:03.256Z,9.73
2023-04-22T00:17:29.827Z,12.57
2023-04-22T00:19:56.974Z,8.50
2023-04-22T00:22:23.477Z,8.13
2023-04-22T00:24:49.938Z,8.20
2023-04-22T00:27:16.456Z,8.77
2023-04-22T00:29:42.984Z,7.73
2023-04-22T00:32:09.457Z,9.20
2023-04-22T00:34:36.110Z,7.10
2023-04-22T00:37:02.608Z,4.90
2023-04-22T00:39:29.175Z,7.70
2023-04-22T00:41:55.817Z,9.47
2023-04-22T00:44:22.298Z,6.20
2023-04-22T00:46:48.866Z,4.87
2023-04-22T00:49:15.557Z,6.13
2023-04-22T00:51:42.089Z,5.33
2023-04-22T00:54:08.590Z,8.27
2023-04-22T00:56:35.952Z,6.40
2023-04-22T00:59:02.462Z,6.13
2023-04-22T01:01:28.986Z,6.83
2023-04-22T01:03:56.475Z,6.23
2023-04-22T01:06:23.109Z,4.30
2023-04-22T01:08:49.576Z,4.47
2023-04-22T01:11:16.064Z,5.87
2023-04-22T01:13:42.651Z,6.40
2023-04-22T01:16:09.227Z,5.07
2023-04-22T01:18:36.319Z,4.40
2023-04-22T01:21:03.160Z,8.87
2023-04-22T01:23:29.680Z,4.93
2023-04-22T01:25:56.153Z,4.63
2023-04-22T01:28:22.702Z,5.03
2023-04-22T01:30:49.183Z,5.87
2023-04-22T01:33:15.701Z,3.83
2023-04-22T01:35:42.194Z,5.63
2023-04-22T01:38:08.683Z,5.13
2023-04-22T01:40:35.133Z,4.20
2023-04-22T01:43:01.700Z,4.13
2023-04-22T01:45:28.213Z,5.23
2023-04-22T01:47:54.749Z,4.50
2023-04-22T01:50:21.333Z,5.00
2023-04-22T01:52:47.873Z,3.30
2023-04-22T01:55:14.419Z,8.60
2023-04-22T01:57:41.265Z,4.40
2023-04-22T02:00:08.340Z,6.67
2023-04-22T02:02:35.069Z,4.27
2023-04-22T02:05:01.644Z,4.17
2023-04-22T02:07:28.192Z,5.20
2023-04-22T02:09:54.720Z,4.67
2023-04-22T02:12:21.287Z,7.27
2023-04-22T02:14:47.823Z,3.43
2023-04-22T02:17:14.338Z,6.60
2023-04-22T02:19:41.214Z,5.30
2023-04-22T02:22:08.008Z,3.40
2023-04-22T02:24:34.483Z,4.30
2023-04-22T02:27:01.287Z,3.77
2023-04-22T02:29:28.032Z,5.33
2023-04-22T02:31:54.692Z,4.90
2023-04-22T02:34:21.250Z,5.00
2023-04-22T02:36:47.742Z,4.20
2023-04-22T02:39:14.230Z,5.83
2023-04-22T02:41:40.720Z,6.30
2023-04-22T02:44:07.242Z,5.10
2023-04-22T02:46:33.925Z,7.20
2023-04-22T02:49:00.860Z,4.77
2023-04-22T02:51:27.325Z,5.43
2023-04-22T02:53:53.795Z,4.10
2023-04-22T02:56:20.436Z,5.40
2023-04-22T02:58:47.117Z,5.43
2023-04-22T03:01:13.635Z,5.30
2023-04-22T03:03:40.282Z,6.00
2023-04-22T03:06:06.995Z,7.13
2023-04-22T03:08:33.544Z,5.60
2023-04-22T03:11:00.029Z,9.63
2023-04-22T03:13:26.528Z,6.00
2023-04-22T03:15:53.098Z,5.20
2023-04-22T03:18:19.647Z,4.17
2023-04-22T03:20:46.285Z,4.57
2023-04-22T03:23:12.780Z,4.70
2023-04-22T03:25:39.258Z,7.53
2023-04-22T03:28:05.805Z,5.57
2023-04-22T03:30:32.344Z,8.47
2023-04-22T03:32:58.898Z,4.07
2023-04-22T03:35:25.606Z,10.10
2023-04-22T03:37:52.166Z,4.87
2023-04-22T03:40:18.639Z,6.07
2023-04-22T03:42:45.156Z,5.70
2023-04-22T03:45:11.658Z,6.53
2023-04-22T03:47:38.218Z,5.13
2023-04-22T03:50:04.813Z,4.43
2023-04-22T03:52:31.312Z,4.50
2023-04-22T03:54:57.774Z,6.87
2023-04-22T03:57:24.302Z,3.87
2023-04-22T03:59:50.909Z,3.63
2023-04-22T04:02:17.733Z,6.37
2023-04-22T04:04:44.741Z,3.63
2023-04-22T04:07:11.466Z,6.97
2023-04-22T04:09:38.416Z,4.47
2023-04-22T04:12:05.261Z,10.83
2023-04-22T04:14:31.750Z,8.77
2023-04-22T04:16:58.504Z,7.43
2023-04-22T04:19:25.057Z,4.43
2023-04-22T04:21:51.576Z,5.13
2023-04-22T04:24:18.066Z,4.90
2023-04-22T04:26:44.569Z,4.27
2023-04-22T04:29:11.140Z,3.53
2023-04-22T04:31:37.705Z,4.33
2023-04-22T04:34:04.345Z,5.07
2023-04-22T04:36:32.700Z,5.77
2023-04-22T04:38:59.189Z,5.60
2023-04-22T04:41:28.051Z,8.00
2023-04-22T04:43:54.559Z,7.70
2023-04-22T04:46:21.196Z,13.73
2023-04-22T04:48:48.686Z,8.13
2023-04-22T04:51:15.244Z,9.30
2023-04-22T04:53:41.776Z,8.03
2023-04-22T04:56:08.237Z,20.10
2023-04-22T04:58:34.822Z,8.20
2023-04-22T05:01:01.334Z,11.70
2023-04-22T05:03:28.033Z,10.87
2023-04-22T05:05:54.740Z,9.10
2023-04-22T05:08:21.351Z,7.37
2023-04-22T05:10:47.892Z,5.90
2023-04-22T05:13:14.460Z,7.03
2023-04-22T05:15:40.923Z,3.73
2023-04-22T05:18:07.646Z,4.03
2023-04-22T05:20:36.145Z,4.53
2023-04-22T05:23:02.929Z,4.13
2023-04-22T05:25:29.429Z,10.57
2023-04-22T05:27:55.944Z,5.20
2023-04-22T05:30:22.471Z,4.47
2023-04-22T05:32:49.036Z,6.03
2023-04-22T05:35:15.610Z,4.90
2023-04-22T05:37:42.162Z,6.07
2023-04-22T05:40:08.682Z,2.60
2023-04-22T05:42:35.197Z,4.67
2023-04-22T05:45:01.687Z,4.33
2023-04-22T05:47:28.284Z,3.47
2023-04-22T05:49:54.824Z,4.67
2023-04-22T05:52:21.403Z,3.83
2023-04-22T05:54:47.910Z,6.53
2023-04-22T05:57:14.513Z,4.23
2023-04-22T05:59:41.248Z,5.57
2023-04-22T06:02:08.161Z,5.03
2023-04-22T06:04:37.343Z,4.60
2023-04-22T06:07:04.517Z,5.37
2023-04-22T06:09:31.010Z,4.70
2023-04-22T06:11:58.102Z,9.47
2023-04-22T06:14:24.691Z,4.97
2023-04-22T06:16:52.580Z,4.40
2023-04-22T06:19:19.242Z,5.77
2023-04-22T06:21:46.026Z,5.27
2023-04-22T06:24:12.573Z,3.93
2023-04-22T06:26:39.157Z,3.60
2023-04-22T06:29:05.957Z,5.50
2023-04-22T06:31:32.518Z,9.40
2023-04-22T06:33:59.525Z,4.53
2023-04-22T06:36:27.369Z,6.80
2023-04-22T06:38:54.984Z,3.00
2023-04-22T06:41:21.597Z,5.33
2023-04-22T06:43:49.691Z,4.30
2023-04-22T06:46:16.250Z,3.57
2023-04-22T06:48:42.812Z,6.07
2023-04-22T06:51:09.350Z,4.73
2023-04-22T06:53:35.879Z,3.00
2023-04-22T06:56:02.362Z,2.70
2023-04-22T06:58:28.849Z,4.67
2023-04-22T07:00:55.342Z,4.10
2023-04-22T07:03:21.990Z,2.63
2023-04-22T07:05:48.672Z,10.90
2023-04-22T07:08:15.277Z,2.37
2023-04-22T07:10:41.750Z,3.37
2023-04-22T07:13:08.324Z,4.77
2023-04-22T07:15:34.938Z,3.80
2023-04-22T07:18:01.477Z,7.57
2023-04-22T07:20:27.989Z,8.03
2023-04-22T07:22:54.618Z,3.17
2023-04-22T07:25:21.130Z,3.37
2023-04-22T07:27:47.710Z,5.30
2023-04-22T07:30:14.389Z,2.90
2023-04-22T07:32:40.978Z,3.00
2023-04-22T07:35:07.494Z,3.73
2023-04-22T07:37:34.045Z,4.73
2023-04-22T07:40:00.601Z,6.77
2023-04-22T07:42:27.220Z,3.93
2023-04-22T07:44:53.777Z,4.60
2023-04-22T07:47:20.430Z,4.03
2023-04-22T07:49:46.947Z,4.87
2023-04-22T07:52:13.564Z,2.73
2023-04-22T07:54:40.248Z,2.60
2023-04-22T07:57:06.773Z,3.67
2023-04-22T07:59:33.316Z,1.90
2023-04-22T08:01:59.925Z,3.30
2023-04-22T08:04:26.909Z,3.70
2023-04-22T08:06:54.765Z,3.40
2023-04-22T08:09:21.342Z,6.73
2023-04-22T08:11:47.876Z,2.63
2023-04-22T08:14:14.347Z,2.40
2023-04-22T08:16:41.140Z,4.17
2023-04-22T08:19:07.647Z,2.73
2023-04-22T08:21:37.160Z,2.60
2023-04-22T08:24:03.739Z,15.77
2023-04-22T08:26:30.513Z,2.40
2023-04-22T08:28:57.059Z,5.17
2023-04-22T08:31:23.642Z,2.70
2023-04-22T08:33:51.005Z,3.60
2023-04-22T08:36:17.583Z,7.23
2023-04-22T08:38:44.145Z,5.57
2023-04-22T08:41:10.732Z,3.57
2023-04-22T08:43:37.221Z,2.27
2023-04-22T08:46:03.700Z,3.07
2023-04-22T08:48:30.261Z,9.60
2023-04-22T08:50:56.765Z,2.30
2023-04-22T08:53:24.901Z,2.23
2023-04-22T08:55:51.588Z,2.47
2023-04-22T08:58:18.199Z,2.47
2023-04-22T09:00:44.809Z,4.40
2023-04-22T09:03:11.520Z,4.30
2023-04-22T09:05:38.077Z,2.30
2023-04-22T09:08:04.596Z,5.77
2023-04-22T09:10:33.548Z,4.90
2023-04-22T09:13:00.719Z,2.87
2023-04-22T09:15:27.683Z,4.87
2023-04-22T09:17:54.377Z,2.40
2023-04-22T09:20:20.907Z,5.50
2023-04-22T09:22:47.428Z,2.10
2023-04-22T09:25:13.902Z,2.70
2023-04-22T09:27:40.440Z,2.40
2023-04-22T09:30:07.050Z,2.07
2023-04-22T09:32:33.590Z,4.83
2023-04-22T09:35:00.110Z,4.40
2023-04-22T09:37:33.317Z,5.37
2023-04-22T09:40:09.556Z,3.33
2023-04-22T09:42:36.059Z,3.93
2023-04-22T09:45:02.672Z,6.23
2023-04-22T09:47:29.423Z,2.40
2023-04-22T09:49:55.914Z,2.47
2023-04-22T09:52:24.621Z,2.80
2023-04-22T09:54:54.333Z,2.20
2023-04-22T09:57:21.217Z,6.93
2023-04-22T09:59:47.703Z,2.10
2023-04-22T10:02:14.251Z,3.77
2023-04-22T10:04:40.985Z,7.10
2023-04-22T10:07:07.522Z,3.10
2023-04-22T10:09:34.063Z,1.40
2023-04-22T10:12:01.251Z,4.47
2023-04-22T10:14:27.749Z,2.23
2023-04-22T10:16:54.365Z,2.50
2023-04-22T10:19:20.975Z,2.60
2023-04-22T10:21:47.522Z,3.10
2023-04-22T10:24:14.049Z,3.23
2023-04-22T10:26:41.271Z,1.87
2023-04-22T10:29:09.319Z,7.93
2023-04-22T10:31:36.046Z,2.37
2023-04-22T10:34:03.409Z,4.10
2023-04-22T10:36:29.969Z,4.03
2023-04-22T10:38:56.695Z,5.10
2023-04-22T10:41:23.186Z,4.93
2023-04-22T10:43:51.042Z,2.60
2023-04-22T10:46:17.628Z,3.40
2023-04-22T10:48:44.168Z,1.70
2023-04-22T10:51:10.732Z,6.13
2023-04-22T10:53:37.291Z,2.90
2023-04-22T10:56:03.998Z,4.73
2023-04-22T10:58:30.550Z,5.13
2023-04-22T11:01:02.976Z,9.23
2023-04-22T11:03:30.364Z,4.30
2023-04-22T11:05:57.120Z,2.40
2023-04-22T11:08:24.166Z,5.43
2023-04-22T11:10:50.802Z,4.73
2023-04-22T11:13:17.440Z,5.93
2023-04-22T11:15:44.000Z,2.67
2023-04-22T11:18:11.132Z,18.43
2023-04-22T11:20:38.060Z,13.33
2023-04-22T11:23:04.711Z,3.40
2023-04-22T11:25:31.291Z,3.23
2023-04-22T11:27:57.844Z,5.17
2023-04-22T11:30:24.394Z,2.10
2023-04-22T11:32:51.043Z,11.20
2023-04-22T11:35:17.673Z,4.43
2023-04-22T11:37:44.243Z,4.27
2023-04-22T11:40:28.087Z,1.87
2023-04-22T11:42:56.530Z,2.80
2023-04-22T11:45:23.089Z,4.00
2023-04-22T11:47:50.735Z,5.00
2023-04-22T11:50:17.231Z,3.70
2023-04-22T11:52:46.882Z,6.83
2023-04-22T11:55:13.459Z,3.30
2023-04-22T11:57:40.800Z,2.93
2023-04-22T12:00:07.386Z,2.53
2023-04-22T12:02:33.995Z,16.40
2023-04-22T12:05:00.758Z,6.33
2023-04-22T12:07:27.365Z,3.77
2023-04-22T12:09:53.879Z,5.27
2023-04-22T12:12:20.569Z,3.30
2023-04-22T12:14:47.142Z,4.20
2023-04-22T12:17:14.809Z,2.13
2023-04-22T12:19:41.969Z,2.73
2023-04-22T12:22:08.576Z,3.63
2023-04-22T12:24:35.503Z,1.70
2023-04-22T12:27:03.377Z,4.10
2023-04-22T12:29:29.883Z,3.10
2023-04-22T12:31:56.399Z,3.30
2023-04-22T12:34:22.918Z,7.30
2023-04-22T12:36:49.494Z,3.20
2023-04-22T12:39:16.159Z,3.90
2023-04-22T12:41:42.691Z,2.63
2023-04-22T12:44:09.258Z,3.70
2023-04-22T12:46:36.199Z,3.63
2023-04-22T12:49:02.716Z,2.60
2023-04-22T12:51:29.203Z,7.10
2023-04-22T12:53:55.772Z,3.87
2023-04-22T12:56:22.293Z,3.20
2023-04-22T12:58:48.849Z,2.23
2023-04-22T13:01:15.584Z,3.90
2023-04-22T13:03:42.196Z,2.63
2023-04-22T13:06:08.754Z,3.10
2023-04-22T13:08:35.296Z,4.20
2023-04-22T13:11:01.988Z,2.90
2023-04-22T13:13:28.516Z,4.30
2023-04-22T13:15:55.090Z,5.83
2023-04-22T13:18:21.881Z,4.00
2023-04-22T13:20:48.494Z,2.70
2023-04-22T13:23:15.401Z,4.43
2023-04-22T13:25:41.933Z,5.10
2023-04-22T13:28:08.428Z,3.87
2023-04-22T13:30:34.968Z,5.67
2023-04-22T13:33:01.525Z,3.63
2023-04-22T13:35:28.067Z,3.93
2023-04-22T13:37:54.602Z,9.70
2023-04-22T13:40:21.452Z,4.43
2023-04-22T13:42:48.004Z,6.27
2023-04-22T13:45:14.521Z,3.03
2023-04-22T13:47:41.057Z,2.67
2023-04-22T13:50:07.884Z,5.03
2023-04-22T13:52:34.981Z,2.43
2023-04-22T13:55:01.524Z,3.90
2023-04-22T13:57:28.033Z,7.37
2023-04-22T13:59:54.602Z,2.70
2023-04-22T14:02:21.204Z,2.77
2023-04-22T14:04:47.779Z,7.23
2023-04-22T14:07:14.308Z,2.10
2023-04-22T14:09:41.097Z,8.37
2023-04-22T14:12:07.857Z,4.10
2023-04-22T14:14:34.473Z,2.27
2023-04-22T14:17:01.239Z,4.67
2023-04-22T14:19:30.134Z,5.30
2023-04-22T14:21:56.704Z,8.47
2023-04-22T14:24:24.311Z,3.47
2023-04-22T14:26:51.981Z,6.83
2023-04-22T14:29:18.493Z,2.90
2023-04-22T14:31:45.240Z,5.43
2023-04-22T14:34:11.903Z,2.90
2023-04-22T14:36:38.421Z,7.50
2023-04-22T14:39:05.077Z,3.40
2023-04-22T14:41:31.582Z,6.50
2023-04-22T14:43:58.116Z,3.37
2023-04-22T14:46:24.650Z,13.40
2023-04-22T14:48:51.183Z,3.77
2023-04-22T14:51:17.703Z,5.83
2023-04-22T14:53:44.254Z,5.03
2023-04-22T14:56:11.943Z,4.53
2023-04-22T14:58:38.582Z,2.50
2023-04-22T15:01:07.398Z,4.10
2023-04-22T15:03:35.538Z,6.97
2023-04-22T15:06:02.603Z,4.53
2023-04-22T15:08:29.166Z,3.93
2023-04-22T15:10:55.718Z,7.07
2023-04-22T15:13:22.236Z,4.00
2023-04-22T15:15:48.848Z,7.13
2023-04-22T15:18:15.337Z,6.13
2023-04-22T15:20:41.804Z,11.83
2023-04-22T15:23:08.304Z,3.20
2023-04-22T15:25:35.639Z,3.70
2023-04-22T15:28:02.274Z,3.60
2023-04-22T15:30:28.887Z,9.93
2023-04-22T15:32:55.593Z,4.13
2023-04-22T15:35:22.227Z,4.27
2023-04-22T15:37:48.731Z,13.70
2023-04-22T15:40:15.356Z,6.20
2023-04-22T15:42:41.839Z,13.20
2023-04-22T15:45:08.391Z,7.10
2023-04-22T15:47:34.989Z,4.13
2023-04-22T15:50:08.934Z,3.00
2023-04-22T15:52:36.011Z,4.30
2023-04-22T15:55:02.581Z,3.13
2023-04-22T15:57:33.936Z,4.80
2023-04-22T16:00:10.212Z,6.03
2023-04-22T16:02:38.173Z,5.13
2023-04-22T16:05:04.782Z,6.83
2023-04-22T16:07:31.313Z,3.73
2023-04-22T16:09:57.829Z,7.20
2023-04-22T16:12:24.437Z,5.03
2023-04-22T16:14:51.043Z,5.37
2023-04-22T16:17:17.613Z,5.20
2023-04-22T16:19:44.217Z,5.27
2023-04-22T16:22:10.705Z,10.90
2023-04-22T16:24:37.487Z,4.73
2023-04-22T16:27:04.004Z,4.67
2023-04-22T16:29:30.712Z,4.97
2023-04-22T16:31:57.214Z,7.80
2023-04-22T16:34:23.775Z,7.60
2023-04-22T16:36:50.395Z,12.30
2023-04-22T16:39:18.964Z,5.73
2023-04-22T16:41:45.684Z,5.33
2023-04-22T16:44:12.189Z,7.87
2023-04-22T16:46:38.808Z,4.33
2023-04-22T16:49:07.813Z,4.37
2023-04-22T16:51:36.774Z,9.70
2023-04-22T16:54:03.302Z,7.50
2023-04-22T16:56:29.949Z,7.33
2023-04-22T16:58:56.487Z,5.10
2023-04-22T17:01:24.037Z,4.50
2023-04-22T17:03:50.870Z,5.13
2023-04-22T17:06:17.544Z,3.67
2023-04-22T17:08:44.040Z,3.53
2023-04-22T17:11:10.615Z,5.77
2023-04-22T17:13:37.124Z,11.03
2023-04-22T17:16:03.718Z,4.83
2023-04-22T17:18:30.353Z,3.87
2023-04-22T17:20:56.911Z,12.20
2023-04-22T17:23:23.576Z,2.93
2023-04-22T17:25:50.231Z,4.40
2023-04-22T17:28:16.744Z,2.33
2023-04-22T17:30:43.272Z,3.73
2023-04-22T17:33:09.798Z,2.70
2023-04-22T17:35:36.331Z,8.63
2023-04-22T17:38:02.831Z,7.07
2023-04-22T17:40:29.361Z,10.30
2023-04-22T17:42:55.833Z,5.00
2023-04-22T17:45:22.364Z,4.77
2023-04-22T17:47:48.947Z,3.33
2023-04-22T17:50:15.596Z,3.20
2023-04-22T17:52:42.123Z,15.23
2023-04-22T17:55:08.608Z,3.20
2023-04-22T17:57:35.245Z,3.83
2023-04-22T18:00:01.748Z,3.00
2023-04-22T18:02:28.500Z,2.90
2023-04-22T18:04:55.129Z,3.27
2023-04-22T18:07:21.778Z,5.37
2023-04-22T18:09:49.503Z,3.97
2023-04-22T18:12:16.035Z,3.93
2023-04-22T18:14:42.561Z,2.70
2023-04-22T18:17:09.099Z,3.47
2023-04-22T18:19:35.589Z,2.83
2023-04-22T18:22:02.126Z,2.23
2023-04-22T18:24:28.668Z,2.67
2023-04-22T18:26:55.164Z,2.73
2023-04-22T18:29:21.900Z,3.00
2023-04-22T18:31:48.490Z,4.53
2023-04-22T18:34:15.798Z,4.53
2023-04-22T18:36:42.432Z,8.70
2023-04-22T18:39:09.506Z,3.97
2023-04-22T18:41:37.951Z,3.20
2023-04-22T18:44:04.690Z,5.43
2023-04-22T18:46:31.463Z,5.10
2023-04-22T18:48:57.934Z,2.90
2023-04-22T18:51:28.460Z,3.10
2023-04-22T18:53:55.505Z,4.93
2023-04-22T18:56:22.123Z,15.73
2023-04-22T18:58:50.111Z,3.77
2023-04-22T19:01:16.833Z,7.23
2023-04-22T19:03:43.393Z,6.30
2023-04-22T19:06:10.041Z,3.23
2023-04-22T19:08:36.603Z,2.63
2023-04-22T19:11:03.211Z,4.53
2023-04-22T19:13:30.381Z,5.33
2023-04-22T19:15:57.195Z,4.63
2023-04-22T19:18:23.779Z,2.87
2023-04-22T19:20:50.385Z,3.33
2023-04-22T19:23:16.938Z,4.00
2023-04-22T19:25:43.622Z,4.20
2023-04-22T19:28:10.106Z,4.00
2023-04-22T19:30:36.631Z,4.53
2023-04-22T19:33:03.144Z,9.53
2023-04-22T19:35:29.729Z,3.27
2023-04-22T19:37:56.223Z,3.10
2023-04-22T19:40:22.710Z,4.30
2023-04-22T19:42:49.259Z,8.43
2023-04-22T19:45:15.744Z,6.43
2023-04-22T19:47:42.376Z,7.40
2023-04-22T19:50:09.313Z,10.40
2023-04-22T19:52:35.951Z,4.30
2023-04-22T19:55:06.510Z,3.30
2023-04-22T19:57:33.017Z,4.73
2023-04-22T19:59:59.485Z,3.30
2023-04-22T20:02:26.641Z,5.63
2023-04-22T20:04:53.365Z,5.03
2023-04-22T20:07:19.856Z,4.10
2023-04-22T20:09:46.518Z,5.33
2023-04-22T20:12:13.011Z,8.43
2023-04-22T20:14:39.514Z,5.50
2023-04-22T20:17:06.017Z,6.23
2023-04-22T20:19:32.480Z,4.70
2023-04-22T20:21:59.238Z,9.63
2023-04-22T20:24:25.741Z,9.03
2023-04-22T20:26:53.390Z,7.57
2023-04-22T20:29:19.956Z,6.67
2023-04-22T20:31:46.695Z,5.00
2023-04-22T20:34:13.232Z,4.70
2023-04-22T20:36:39.778Z,9.93
2023-04-22T20:39:06.404Z,7.40
2023-04-22T20:41:33.872Z,5.80
2023-04-22T20:44:00.675Z,6.40
2023-04-22T20:46:28.126Z,4.00
2023-04-22T20:48:54.848Z,4.10
2023-04-22T20:51:21.372Z,3.67
2023-04-22T20:53:47.898Z,5.80
2023-04-22T20:56:14.411Z,4.60
2023-04-22T20:58:40.929Z,5.90
2023-04-22T21:01:07.563Z,4.10
2023-04-22T21:03:34.288Z,8.03
2023-04-22T21:06:00.972Z,4.33
2023-04-22T21:08:27.506Z,3.57
2023-04-22T21:10:54.023Z,7.90
2023-04-22T21:13:20.558Z,4.80
2023-04-22T21:15:47.125Z,2.70
2023-04-22T21:18:13.619Z,3.87
2023-04-22T21:20:40.249Z,2.00
2023-04-22T21:23:07.766Z,3.47
2023-04-22T21:25:34.268Z,8.23
2023-04-22T21:28:01.135Z,8.40
2023-04-22T21:30:27.616Z,4.17
2023-04-22T21:32:54.114Z,3.03
2023-04-22T21:35:23.659Z,11.57
2023-04-22T21:37:50.603Z,4.70
2023-04-22T21:40:17.374Z,3.90
2023-04-22T21:42:43.904Z,4.70
2023-04-22T21:45:10.500Z,3.07
2023-04-22T21:47:37.106Z,6.30
2023-04-22T21:50:03.692Z,12.97
2023-04-22T21:52:30.317Z,10.30
2023-04-22T21:54:56.804Z,12.73
2023-04-22T21:57:23.308Z,17.10
2023-04-22T21:59:49.834Z,12.23
2023-04-22T22:02:16.433Z,14.97
2023-04-22T22:04:43.324Z,13.53
2023-04-22T22:07:12.145Z,17.03
2023-04-22T22:09:38.635Z,17.27
2023-04-22T22:12:06.469Z,17.90
2023-04-22T22:14:32.935Z,18.97
2023-04-22T22:16:59.589Z,17.70
2023-04-22T22:19:27.685Z,18.23
2023-04-22T22:21:54.189Z,19.87
2023-04-22T22:24:20.736Z,23.00
2023-04-22T22:26:47.266Z,21.17
2023-04-22T22:29:15.453Z,20.43
2023-04-22T22:31:42.230Z,21.30
2023-04-22T22:34:08.737Z,20.60
2023-04-22T22:36:36.115Z,24.27
2023-04-22T22:39:03.394Z,25.57
2023-04-22T22:41:29.944Z,26.90
2023-04-22T22:43:56.412Z,26.67
2023-04-22T22:46:22.986Z,26.67
2023-04-22T22:48:49.802Z,31.63
2023-04-22T22:51:18.514Z,26.20
2023-04-22T22:53:45.317Z,29.17
2023-04-22T22:56:14.413Z,30.07
2023-04-22T22:58:40.924Z,30.33
2023-04-22T23:01:07.438Z,29.13
2023-04-22T23:03:34.198Z,35.27
2023-04-22T23:06:01.192Z,36.87
2023-04-22T23:08:27.679Z,34.83
2023-04-22T23:10:54.189Z,38.00
2023-04-22T23:13:20.913Z,41.97
2023-04-22T23:15:47.421Z,31.03
2023-04-22T23:18:13.985Z,33.10
2023-04-22T23:20:40.462Z,39.07
2023-04-22T23:23:06.971Z,35.27
2023-04-22T23:25:33.458Z,32.50
2023-04-22T23:28:00.572Z,35.17
2023-04-22T23:30:27.081Z,34.70
2023-04-22T23:32:53.576Z,27.57
2023-04-22T23:35:20.154Z,31.00
2023-04-22T23:37:46.919Z,32.33
2023-04-22T23:40:13.489Z,33.00
2023-04-22T23:42:40.263Z,29.93
2023-04-22T23:45:07.168Z,25.10
2023-04-22T23:47:33.755Z,27.50
2023-04-22T23:50:00.408Z,30.40
2023-04-22T23:52:26.944Z,29.20
2023-04-22T23:54:54.952Z,28.40
2023-04-22T23:57:21.650Z,28.63
2023-04-22T23:59:48.153Z,26.57
